Time;durP1;ratioP1;P1;durP2;ratioP2;P2;SDS_P1;SDS_P2;PMS_P1;PMS_P2;Temp;Humidity;BMP_temperature;BMP_pressure;BME280_temperature;BME280_humidity;BME280_pressure;Samples;Min_cycle;Max_cycle;Signal;HPM_P1;HPM_P2
2021/11/30 00:01:15;;;;;;;;;21.25;17.75;;;;;;;;5042098;28;11690;-89
2021/11/30 00:03:43;;;;;;;;;25.75;22.50;;;;;;;;5042686;28;11687;-81
2021/11/30 00:06:12;;;;;;;;;25.50;23.75;;;;;;;;5030209;28;11615;-87
2021/11/30 00:08:40;;;;;;;;;18.75;18.25;;;;;;;;5042417;28;11730;-88
2021/11/30 00:11:09;;;;;;;;;15.50;15.50;;;;;;;;5047161;28;12435;-87
2021/11/30 00:13:38;;;;;;;;;23.25;19.50;;;;;;;;5047935;28;11593;-87
2021/11/30 00:16:07;;;;;;;;;20.00;18.00;;;;;;;;5025950;28;11615;-86
2021/11/30 00:18:36;;;;;;;;;20.25;16.75;;;;;;;;5045260;28;11590;-87
2021/11/30 00:21:05;;;;;;;;;21.00;17.50;;;;;;;;5044726;28;11621;-85
2021/11/30 00:23:32;;;;;;;;;20.75;17.25;;;;;;;;5048122;28;11578;-86
2021/11/30 00:26:00;;;;;;;;;23.00;18.00;;;;;;;;5044848;28;11654;-86
2021/11/30 00:28:28;;;;;;;;;20.75;18.25;;;;;;;;5029393;28;12370;-87
2021/11/30 00:30:56;;;;;;;;;17.00;17.00;;;;;;;;5045510;28;11591;-86
2021/11/30 00:33:23;;;;;;;;;22.50;18.75;;;;;;;;5045999;28;11617;-84
2021/11/30 00:35:53;;;;;;;;;21.75;18.00;;;;;;;;5045762;28;11607;-87
2021/11/30 00:38:20;;;;;;;;;15.75;15.25;;;;;;;;5048792;28;11734;-88
2021/11/30 00:40:48;;;;;;;;;21.25;16.50;;;;;;;;5045087;28;12443;-83
2021/11/30 00:43:20;;;;;;;;;14.00;12.50;;;;;;;;5047015;28;11624;-87
2021/11/30 00:45:53;;;;;;;;;22.25;18.00;;;;;;;;5047033;28;11644;-85
2021/11/30 00:48:23;;;;;;;;;16.50;14.75;;;;;;;;5046401;28;11608;-87
2021/11/30 00:50:53;;;;;;;;;17.75;17.00;;;;;;;;5046894;28;11609;-88
2021/11/30 00:53:21;;;;;;;;;13.00;11.00;;;;;;;;5046693;28;11696;-88
2021/11/30 00:55:48;;;;;;;;;13.50;13.50;;;;;;;;5059059;28;11607;-83
2021/11/30 00:58:16;;;;;;;;;20.00;16.00;;;;;;;;5047833;28;11607;-87
2021/11/30 01:00:43;;;;;;;;;15.25;13.50;;;;;;;;5046461;28;11537;-84
2021/11/30 01:03:11;;;;;;;;;12.00;11.00;;;;;;;;5047309;28;11621;-85
2021/11/30 01:05:39;;;;;;;;;14.50;14.00;;;;;;;;5050465;28;11641;-85
2021/11/30 01:08:08;;;;;;;;;20.50;13.50;;;;;;;;5042534;28;11653;-81
2021/11/30 01:10:36;;;;;;;;;14.75;12.00;;;;;;;;5031396;28;11682;-88
2021/11/30 01:13:04;;;;;;;;;18.00;16.50;;;;;;;;5024204;28;11655;-87
2021/11/30 01:15:32;;;;;;;;;13.75;13.50;;;;;;;;5033007;28;11661;-89
2021/11/30 01:17:59;;;;;;;;;16.75;15.75;;;;;;;;5024556;28;11715;-88
2021/11/30 01:20:27;;;;;;;;;16.00;16.00;;;;;;;;5011483;28;11539;-86
2021/11/30 01:22:55;;;;;;;;;12.00;12.00;;;;;;;;5023886;28;11621;-86
2021/11/30 01:25:25;;;;;;;;;15.25;15.25;;;;;;;;5022095;28;11545;-85
2021/11/30 01:27:52;;;;;;;;;13.50;11.75;;;;;;;;5025276;28;11652;-85
2021/11/30 01:30:19;;;;;;;;;16.25;14.25;;;;;;;;5010694;28;11576;-85
2021/11/30 01:32:47;;;;;;;;;14.25;14.00;;;;;;;;5026663;28;11575;-86
2021/11/30 01:35:16;;;;;;;;;18.00;13.50;;;;;;;;5000993;28;11562;-86
2021/11/30 01:37:44;;;;;;;;;19.00;17.50;;;;;;;;5024863;28;11575;-85
2021/11/30 01:40:14;;;;;;;;;16.25;13.75;;;;;;;;5005496;28;11700;-87
2021/11/30 01:42:45;;;;;;;;;15.00;15.00;;;;;;;;5016288;28;11598;-88
2021/11/30 01:45:20;;;;;;;;;16.00;16.00;;;;;;;;5025136;28;11557;-85
2021/11/30 01:49:10;;;;;;;;;13.50;13.00;;;;;;;;5026364;28;11566;-84
2021/11/30 01:51:00;;;;;;;;;16.75;16.75;;;;;;;;5023597;28;11610;-84
2021/11/30 01:53:28;;;;;;;;;16.50;12.75;;;;;;;;5031080;28;11543;-87
2021/11/30 01:55:56;;;;;;;;;12.75;12.75;;;;;;;;5008226;28;11636;-87
2021/11/30 01:58:25;;;;;;;;;14.00;14.00;;;;;;;;5023990;28;11674;-88
2021/11/30 02:00:52;;;;;;;;;19.50;15.00;;;;;;;;5027158;28;11620;-84
2021/11/30 02:03:19;;;;;;;;;13.25;13.25;;;;;;;;5025889;28;11635;-86
2021/11/30 02:05:47;;;;;;;;;16.00;13.50;;;;;;;;5025992;28;11562;-88
2021/11/30 02:08:14;;;;;;;;;13.75;9.00;;;;;;;;5046372;28;11660;-87
2021/11/30 02:10:42;;;;;;;;;14.25;12.00;;;;;;;;5043037;28;11710;-87
2021/11/30 02:13:10;;;;;;;;;13.00;12.25;;;;;;;;5042512;28;11681;-90
2021/11/30 02:15:41;;;;;;;;;17.50;15.75;;;;;;;;5045161;28;11653;-90
2021/11/30 02:18:13;;;;;;;;;16.00;14.00;;;;;;;;5044742;28;11608;-87
2021/11/30 02:20:45;;;;;;;;;16.00;13.50;;;;;;;;5041423;28;11580;-87
2021/11/30 02:23:24;;;;;;;;;19.00;17.00;;;;;;;;5046842;28;11696;-90
2021/11/30 02:25:51;;;;;;;;;12.00;11.50;;;;;;;;5039381;28;11637;-91
2021/11/30 02:28:18;;;;;;;;;12.00;10.25;;;;;;;;5048030;28;11612;-91
2021/11/30 02:30:46;;;;;;;;;14.00;14.00;;;;;;;;5053150;28;11514;-88
2021/11/30 02:33:13;;;;;;;;;9.25;9.25;;;;;;;;5029267;28;11541;-87
2021/11/30 02:35:44;;;;;;;;;16.50;16.50;;;;;;;;5048230;28;11895;-76
2021/11/30 02:38:12;;;;;;;;;15.25;15.25;;;;;;;;5048289;28;11082;-83
2021/11/30 02:40:39;;;;;;;;;17.75;13.50;;;;;;;;5038136;28;11631;-78
2021/11/30 02:43:07;;;;;;;;;13.00;13.00;;;;;;;;5043526;28;11621;-79
2021/11/30 02:45:34;;;;;;;;;6.75;5.75;;;;;;;;5043289;28;11660;-77
2021/11/30 02:48:02;;;;;;;;;13.50;13.50;;;;;;;;5044059;28;12398;-76
2021/11/30 02:50:38;;;;;;;;;15.00;15.00;;;;;;;;5044814;28;11599;-83
2021/11/30 02:53:10;;;;;;;;;12.00;12.00;;;;;;;;5049273;28;12424;-84
2021/11/30 02:55:37;;;;;;;;;15.00;15.00;;;;;;;;5030628;28;11948;-73
2021/11/30 02:58:04;;;;;;;;;11.75;11.75;;;;;;;;5042873;28;11563;-80
2021/11/30 03:00:32;;;;;;;;;12.00;12.00;;;;;;;;5043636;28;11550;-80
2021/11/30 03:02:59;;;;;;;;;18.25;11.50;;;;;;;;5042117;28;12285;-80
2021/11/30 03:05:26;;;;;;;;;18.00;14.25;;;;;;;;5046241;28;12369;-84
2021/11/30 03:07:53;;;;;;;;;14.50;13.75;;;;;;;;5045494;28;11635;-73
2021/11/30 03:10:22;;;;;;;;;17.00;15.00;;;;;;;;5034718;28;11610;-82
2021/11/30 03:12:51;;;;;;;;;16.00;16.00;;;;;;;;5054430;28;12440;-80
2021/11/30 03:15:21;;;;;;;;;16.50;15.50;;;;;;;;5042816;28;11732;-82
2021/11/30 03:17:48;;;;;;;;;15.00;12.00;;;;;;;;5045330;28;11650;-76
2021/11/30 03:20:17;;;;;;;;;14.00;11.50;;;;;;;;5042132;28;11609;-80
2021/11/30 03:22:46;;;;;;;;;19.25;16.50;;;;;;;;5058267;28;11640;-77
2021/11/30 03:25:14;;;;;;;;;16.00;16.00;;;;;;;;5049749;28;11672;-80
2021/11/30 03:27:45;;;;;;;;;15.00;12.50;;;;;;;;5044919;28;11643;-80
2021/11/30 03:30:13;;;;;;;;;11.50;11.50;;;;;;;;5043620;28;11662;-81
2021/11/30 03:35:26;;;;;;;;;13.50;13.50;;;;;;;;5037116;28;11586;-73
2021/11/30 03:37:53;;;;;;;;;15.00;12.75;;;;;;;;5048699;28;11653;-77
2021/11/30 03:40:20;;;;;;;;;17.25;15.00;;;;;;;;5041822;28;11723;-76
2021/11/30 03:42:49;;;;;;;;;20.00;17.00;;;;;;;;5037558;28;11608;-81
2021/11/30 03:45:16;;;;;;;;;13.25;13.00;;;;;;;;5042492;28;11647;-79
2021/11/30 03:47:44;;;;;;;;;14.50;14.50;;;;;;;;5044179;28;11663;-85
2021/11/30 03:50:12;;;;;;;;;20.50;16.00;;;;;;;;5039930;28;11542;-81
2021/11/30 03:52:40;;;;;;;;;17.50;12.75;;;;;;;;5033961;28;11731;-85
2021/11/30 03:55:09;;;;;;;;;17.00;15.75;;;;;;;;5046627;28;11596;-85
2021/11/30 03:57:36;;;;;;;;;16.00;11.75;;;;;;;;5045207;28;12275;-81
2021/11/30 04:00:10;;;;;;;;;12.00;12.00;;;;;;;;5024641;28;11598;-83
2021/11/30 04:02:38;;;;;;;;;15.00;15.00;;;;;;;;5056951;28;11627;-86
2021/11/30 04:05:09;;;;;;;;;16.50;15.50;;;;;;;;5046621;28;11609;-86
2021/11/30 04:07:37;;;;;;;;;15.25;11.00;;;;;;;;5033479;28;11534;-84
2021/11/30 04:10:05;;;;;;;;;15.25;12.50;;;;;;;;5027542;28;11535;-75
2021/11/30 04:12:32;;;;;;;;;13.75;13.75;;;;;;;;5033214;28;11552;-81
2021/11/30 04:14:59;;;;;;;;;15.50;14.25;;;;;;;;5021920;28;12331;-77
2021/11/30 04:17:28;;;;;;;;;13.00;11.75;;;;;;;;5024101;28;12242;-84
2021/11/30 04:19:55;;;;;;;;;17.00;12.75;;;;;;;;4991186;28;11667;-82
2021/11/30 04:22:23;;;;;;;;;15.75;15.75;;;;;;;;5026059;28;11538;-80
2021/11/30 04:24:50;;;;;;;;;14.75;12.50;;;;;;;;5029787;28;12453;-83
2021/11/30 04:27:17;;;;;;;;;13.75;13.75;;;;;;;;5031525;28;11553;-79
2021/11/30 04:29:46;;;;;;;;;16.50;16.50;;;;;;;;5018161;28;11567;-84
2021/11/30 04:32:13;;;;;;;;;18.00;16.75;;;;;;;;5027368;28;11696;-76
2021/11/30 04:34:42;;;;;;;;;20.00;19.25;;;;;;;;5020404;28;11599;-72
2021/11/30 04:37:09;;;;;;;;;13.50;13.50;;;;;;;;5021441;28;11589;-79
2021/11/30 04:39:37;;;;;;;;;15.50;15.00;;;;;;;;5031247;28;11682;-74
2021/11/30 04:42:05;;;;;;;;;15.00;15.00;;;;;;;;5021299;28;11590;-78
2021/11/30 04:44:35;;;;;;;;;13.50;12.25;;;;;;;;5022420;28;11710;-74
2021/11/30 04:47:06;;;;;;;;;16.25;12.00;;;;;;;;5029986;28;11561;-74
2021/11/30 04:52:19;;;;;;;;;12.00;12.00;;;;;;;;5025720;28;12432;-77
2021/11/30 04:54:46;;;;;;;;;12.25;12.25;;;;;;;;5032887;28;11549;-82
2021/11/30 04:57:13;;;;;;;;;19.75;14.75;;;;;;;;5021459;28;11536;-79
2021/11/30 04:59:40;;;;;;;;;12.75;12.75;;;;;;;;5025818;28;12381;-72
2021/11/30 05:02:08;;;;;;;;;14.00;11.75;;;;;;;;5022657;28;11528;-76
2021/11/30 05:04:36;;;;;;;;;16.50;12.50;;;;;;;;5020104;28;11692;-79
2021/11/30 05:07:03;;;;;;;;;12.50;10.50;;;;;;;;5036231;28;11604;-79
2021/11/30 05:09:32;;;;;;;;;11.75;10.25;;;;;;;;5038167;28;11726;-78
2021/11/30 05:11:59;;;;;;;;;18.50;15.75;;;;;;;;5050420;28;11651;-76
2021/11/30 05:14:27;;;;;;;;;13.75;12.00;;;;;;;;5048419;28;11640;-75
2021/11/30 05:16:54;;;;;;;;;12.50;12.50;;;;;;;;5044862;28;12432;-83
2021/11/30 05:19:21;;;;;;;;;13.00;13.00;;;;;;;;5028814;28;11619;-74
2021/11/30 05:21:49;;;;;;;;;15.25;12.75;;;;;;;;5033747;28;11590;-73
2021/11/30 05:24:19;;;;;;;;;10.25;10.25;;;;;;;;5046160;28;11753;-74
2021/11/30 05:26:48;;;;;;;;;12.25;10.25;;;;;;;;5046802;28;11560;-72
2021/11/30 05:29:15;;;;;;;;;16.50;16.00;;;;;;;;5049430;28;11547;-82
2021/11/30 05:31:43;;;;;;;;;15.25;15.25;;;;;;;;5040947;28;11611;-79
2021/11/30 05:34:10;;;;;;;;;10.50;10.50;;;;;;;;5027130;28;11777;-72
2021/11/30 05:36:37;;;;;;;;;13.75;13.75;;;;;;;;5031024;28;11651;-78
2021/11/30 05:39:05;;;;;;;;;14.75;14.00;;;;;;;;5042460;28;11591;-81
2021/11/30 05:41:32;;;;;;;;;15.75;15.75;;;;;;;;5035344;28;11627;-72
2021/11/30 05:44:01;;;;;;;;;13.00;12.50;;;;;;;;5040234;28;11706;-79
2021/11/30 05:46:30;;;;;;;;;14.75;13.50;;;;;;;;5033324;28;11609;-73
2021/11/30 05:48:58;;;;;;;;;14.25;14.00;;;;;;;;5033147;28;11620;-75
2021/11/30 05:51:25;;;;;;;;;15.50;13.50;;;;;;;;5038322;28;11590;-71
2021/11/30 05:53:52;;;;;;;;;18.25;15.75;;;;;;;;5041873;28;11663;-70
2021/11/30 05:56:20;;;;;;;;;12.50;12.00;;;;;;;;5037166;28;11665;-72
2021/11/30 05:58:47;;;;;;;;;16.75;12.00;;;;;;;;5032397;28;12384;-73
2021/11/30 06:01:21;;;;;;;;;12.50;10.75;;;;;;;;5033004;28;11576;-71
2021/11/30 06:03:58;;;;;;;;;11.50;9.00;;;;;;;;5041613;28;11576;-71
2021/11/30 06:06:28;;;;;;;;;12.25;12.25;;;;;;;;5043431;28;11558;-72
2021/11/30 06:08:55;;;;;;;;;16.00;16.00;;;;;;;;5049515;28;11604;-80
2021/11/30 06:11:23;;;;;;;;;12.75;12.75;;;;;;;;5057697;28;11654;-72
2021/11/30 06:13:50;;;;;;;;;12.25;12.25;;;;;;;;5029091;28;11736;-71
2021/11/30 06:16:19;;;;;;;;;13.75;13.75;;;;;;;;5024337;28;11615;-81
2021/11/30 06:18:46;;;;;;;;;13.00;13.00;;;;;;;;5022073;28;11620;-78
2021/11/30 06:21:14;;;;;;;;;16.00;13.00;;;;;;;;5039490;28;12466;-73
2021/11/30 06:23:42;;;;;;;;;15.00;13.25;;;;;;;;5037047;28;11712;-74
2021/11/30 06:26:11;;;;;;;;;12.50;12.50;;;;;;;;5021039;28;11748;-76
2021/11/30 06:28:39;;;;;;;;;13.25;11.00;;;;;;;;5040872;28;12514;-74
2021/11/30 06:31:07;;;;;;;;;14.00;12.50;;;;;;;;5032713;28;11663;-73
2021/11/30 06:33:36;;;;;;;;;16.25;16.00;;;;;;;;5029952;28;11706;-74
2021/11/30 06:36:05;;;;;;;;;12.00;10.50;;;;;;;;5037190;28;11595;-73
2021/11/30 06:38:33;;;;;;;;;15.75;14.25;;;;;;;;5042469;28;11738;-73
2021/11/30 06:41:00;;;;;;;;;15.50;15.50;;;;;;;;5021884;28;11597;-74
2021/11/30 06:43:27;;;;;;;;;17.00;14.50;;;;;;;;5041741;28;11603;-73
2021/11/30 06:45:55;;;;;;;;;18.25;17.50;;;;;;;;5064568;28;11725;-73
2021/11/30 06:48:22;;;;;;;;;16.50;16.50;;;;;;;;5043439;28;11628;-73
2021/11/30 06:50:51;;;;;;;;;16.50;13.00;;;;;;;;5045609;28;11832;-73
2021/11/30 06:53:21;;;;;;;;;22.00;18.25;;;;;;;;5043090;28;11606;-73
2021/11/30 06:55:48;;;;;;;;;17.00;16.00;;;;;;;;5051265;28;11634;-72
2021/11/30 06:58:16;;;;;;;;;17.00;16.50;;;;;;;;5044185;28;12483;-72
2021/11/30 07:00:45;;;;;;;;;16.50;16.50;;;;;;;;5039815;28;11674;-73
2021/11/30 07:03:12;;;;;;;;;16.50;16.50;;;;;;;;5024350;28;11606;-72
2021/11/30 07:05:41;;;;;;;;;13.00;11.50;;;;;;;;5037246;28;12549;-72
2021/11/30 07:08:17;;;;;;;;;16.50;15.75;;;;;;;;5041463;28;12674;-73
2021/11/30 07:10:47;;;;;;;;;19.25;15.50;;;;;;;;5022765;28;11600;-72
2021/11/30 07:13:18;;;;;;;;;14.00;14.00;;;;;;;;5041331;28;11627;-73
2021/11/30 07:15:48;;;;;;;;;14.25;12.75;;;;;;;;5039239;28;11582;-72
2021/11/30 07:18:16;;;;;;;;;22.00;17.25;;;;;;;;5033763;28;11595;-73
2021/11/30 07:20:43;;;;;;;;;15.75;15.75;;;;;;;;5038638;28;11632;-73
2021/11/30 07:23:12;;;;;;;;;13.25;13.25;;;;;;;;5032784;28;11606;-73
2021/11/30 07:25:40;;;;;;;;;10.25;10.25;;;;;;;;5046797;28;11744;-72
2021/11/30 07:28:08;;;;;;;;;12.50;12.50;;;;;;;;5023996;28;11632;-72
2021/11/30 07:30:36;;;;;;;;;19.50;16.75;;;;;;;;5042589;28;11689;-72
2021/11/30 07:33:03;;;;;;;;;17.00;17.00;;;;;;;;5029584;28;11747;-72
2021/11/30 07:35:31;;;;;;;;;14.25;13.75;;;;;;;;5030703;28;11644;-72
2021/11/30 07:37:58;;;;;;;;;18.25;18.25;;;;;;;;5034753;28;11624;-72
2021/11/30 07:40:27;;;;;;;;;13.50;13.50;;;;;;;;5039768;28;11686;-72
2021/11/30 07:42:55;;;;;;;;;20.25;17.00;;;;;;;;5020580;28;14105;-72
2021/11/30 07:45:22;;;;;;;;;20.00;20.00;;;;;;;;5037423;28;11652;-72
2021/11/30 07:47:49;;;;;;;;;20.50;19.00;;;;;;;;5022095;28;11647;-72
2021/11/30 07:50:17;;;;;;;;;18.00;13.25;;;;;;;;5042164;28;11611;-72
2021/11/30 07:52:45;;;;;;;;;13.75;10.75;;;;;;;;5020654;28;11641;-71
2021/11/30 07:55:15;;;;;;;;;23.50;16.75;;;;;;;;5039674;28;12170;-72
2021/11/30 07:57:44;;;;;;;;;15.50;15.50;;;;;;;;5039630;28;11628;-72
2021/11/30 08:00:13;;;;;;;;;14.50;14.25;;;;;;;;5044315;28;11696;-75
2021/11/30 08:02:41;;;;;;;;;16.75;13.25;;;;;;;;5032988;28;11697;-76
2021/11/30 08:05:10;;;;;;;;;12.00;12.00;;;;;;;;5043218;28;11712;-76
2021/11/30 08:07:37;;;;;;;;;15.75;12.00;;;;;;;;5040137;28;11715;-75
2021/11/30 08:10:07;;;;;;;;;15.25;13.00;;;;;;;;5039520;28;11646;-75
2021/11/30 08:12:35;;;;;;;;;10.00;10.00;;;;;;;;5038256;28;11716;-75
2021/11/30 08:15:05;;;;;;;;;13.75;13.75;;;;;;;;5037849;28;12228;-75
2021/11/30 08:17:32;;;;;;;;;15.50;13.50;;;;;;;;5043165;28;11733;-74
2021/11/30 08:20:00;;;;;;;;;22.25;15.00;;;;;;;;5041296;28;11559;-74
2021/11/30 08:22:28;;;;;;;;;18.25;12.25;;;;;;;;5037891;28;11648;-75
2021/11/30 08:24:55;;;;;;;;;16.50;16.50;;;;;;;;5042757;28;11551;-74
2021/11/30 08:27:22;;;;;;;;;16.25;12.00;;;;;;;;5041635;28;11703;-74
2021/11/30 08:29:51;;;;;;;;;20.50;13.75;;;;;;;;5042578;28;11609;-76
2021/11/30 08:32:22;;;;;;;;;15.75;14.50;;;;;;;;5035523;28;11543;-74
2021/11/30 08:34:51;;;;;;;;;11.50;9.25;;;;;;;;5039036;28;11577;-74
2021/11/30 08:37:19;;;;;;;;;16.00;13.00;;;;;;;;5042238;28;11535;-74
2021/11/30 08:39:48;;;;;;;;;18.75;12.75;;;;;;;;5043437;28;11586;-75
2021/11/30 08:42:16;;;;;;;;;23.75;17.00;;;;;;;;5041768;28;11501;-73
2021/11/30 08:44:44;;;;;;;;;15.50;14.25;;;;;;;;5046388;28;11588;-74
2021/11/30 08:47:13;;;;;;;;;19.25;16.75;;;;;;;;5041934;28;12497;-74
2021/11/30 08:49:43;;;;;;;;;20.25;17.00;;;;;;;;5040364;28;11666;-74
2021/11/30 08:52:15;;;;;;;;;17.50;16.25;;;;;;;;5045715;28;11548;-75
2021/11/30 08:54:44;;;;;;;;;14.75;14.75;;;;;;;;5051889;28;11516;-75
2021/11/30 08:57:12;;;;;;;;;22.50;16.25;;;;;;;;5051725;28;11552;-76
2021/11/30 08:59:40;;;;;;;;;19.75;16.75;;;;;;;;5049002;28;11537;-73
2021/11/30 09:02:07;;;;;;;;;16.25;14.25;;;;;;;;5043904;28;11588;-74
2021/11/30 09:04:35;;;;;;;;;12.75;12.75;;;;;;;;5039235;28;11543;-75
2021/11/30 09:07:04;;;;;;;;;14.00;14.00;;;;;;;;5039767;28;11590;-74
2021/11/30 09:09:31;;;;;;;;;16.00;16.00;;;;;;;;5014990;28;11616;-74
2021/11/30 09:11:59;;;;;;;;;15.75;15.25;;;;;;;;5033820;28;11599;-74
2021/11/30 09:14:27;;;;;;;;;16.25;16.25;;;;;;;;5053700;28;11538;-74
2021/11/30 09:16:56;;;;;;;;;6.00;6.00;;;;;;;;5052786;28;11622;-74
2021/11/30 09:19:24;;;;;;;;;18.00;18.00;;;;;;;;5064589;28;11473;-74
2021/11/30 09:21:53;;;;;;;;;18.50;15.75;;;;;;;;5045882;28;11682;-74
2021/11/30 09:24:22;;;;;;;;;14.00;13.00;;;;;;;;5044841;28;11525;-74
2021/11/30 09:26:50;;;;;;;;;18.50;14.50;;;;;;;;5046291;28;11552;-74
2021/11/30 09:29:17;;;;;;;;;14.75;13.25;;;;;;;;5044811;28;11633;-74
2021/11/30 09:31:45;;;;;;;;;13.00;13.00;;;;;;;;5027405;28;11581;-74
2021/11/30 09:34:12;;;;;;;;;17.00;17.00;;;;;;;;5044793;28;11623;-74
2021/11/30 09:36:43;;;;;;;;;14.50;14.50;;;;;;;;5044846;28;11553;-74
2021/11/30 09:39:10;;;;;;;;;16.00;13.50;;;;;;;;5055501;28;11538;-74
2021/11/30 09:41:39;;;;;;;;;16.75;16.00;;;;;;;;5044519;28;11563;-74
2021/11/30 09:44:08;;;;;;;;;17.75;13.75;;;;;;;;5046012;28;12384;-74
2021/11/30 09:46:35;;;;;;;;;16.25;13.75;;;;;;;;5044074;28;11578;-74
2021/11/30 09:49:02;;;;;;;;;19.75;12.50;;;;;;;;5045766;28;11766;-74
2021/11/30 09:51:30;;;;;;;;;13.00;13.00;;;;;;;;5044589;28;11620;-74
2021/11/30 09:53:57;;;;;;;;;13.00;13.00;;;;;;;;5044334;28;11568;-75
2021/11/30 09:56:25;;;;;;;;;16.50;16.50;;;;;;;;5044908;28;11529;-75
2021/11/30 09:58:53;;;;;;;;;13.00;13.00;;;;;;;;5043174;28;11577;-75
2021/11/30 10:01:21;;;;;;;;;16.75;14.00;;;;;;;;5015407;28;11492;-74
2021/11/30 10:03:49;;;;;;;;;12.00;12.00;;;;;;;;5043949;28;11570;-74
2021/11/30 10:06:16;;;;;;;;;22.25;15.75;;;;;;;;5045122;28;11613;-74
2021/11/30 10:08:46;;;;;;;;;16.50;16.50;;;;;;;;5026663;28;11562;-74
2021/11/30 10:11:31;;;;;;;;;14.50;12.75;;;;;;;;5044173;28;11598;-74
2021/11/30 10:14:15;;;;;;;;;12.50;12.50;;;;;;;;5045527;28;11644;-74
2021/11/30 10:16:43;;;;;;;;;10.00;10.00;;;;;;;;5046456;28;11632;-74
2021/11/30 10:19:10;;;;;;;;;13.75;13.00;;;;;;;;5065454;28;11670;-74
2021/11/30 10:21:38;;;;;;;;;15.00;14.75;;;;;;;;5063615;28;11536;-74
2021/11/30 10:24:07;;;;;;;;;13.75;13.75;;;;;;;;5064540;28;11597;-74
2021/11/30 10:26:36;;;;;;;;;11.75;11.75;;;;;;;;5064476;28;12324;-74
2021/11/30 10:29:06;;;;;;;;;16.50;11.25;;;;;;;;5049206;28;11541;-74
2021/11/30 10:31:36;;;;;;;;;13.75;12.75;;;;;;;;5043760;28;11495;-75
2021/11/30 10:34:12;;;;;;;;;12.25;11.50;;;;;;;;5043392;28;11538;-75
2021/11/30 10:36:52;;;;;;;;;15.00;13.75;;;;;;;;5032023;28;11567;-74
2021/11/30 10:39:22;;;;;;;;;15.00;12.50;;;;;;;;5026437;28;11543;-74
2021/11/30 10:41:51;;;;;;;;;12.50;12.50;;;;;;;;5044090;28;11540;-74
2021/11/30 10:44:28;;;;;;;;;13.00;10.00;;;;;;;;5044580;28;11560;-75
2021/11/30 10:47:10;;;;;;;;;14.00;13.00;;;;;;;;5034973;28;12454;-75
2021/11/30 10:49:45;;;;;;;;;13.00;13.00;;;;;;;;5031829;28;12195;-74
2021/11/30 10:52:18;;;;;;;;;7.75;7.75;;;;;;;;5029677;28;12428;-74
2021/11/30 10:54:45;;;;;;;;;12.00;12.00;;;;;;;;5043923;28;11473;-74
2021/11/30 10:57:12;;;;;;;;;10.75;10.75;;;;;;;;5047081;28;11560;-74
2021/11/30 10:59:40;;;;;;;;;11.50;11.50;;;;;;;;5061218;28;11617;-74
2021/11/30 11:02:11;;;;;;;;;13.50;11.00;;;;;;;;5046700;28;11469;-74
2021/11/30 11:04:38;;;;;;;;;15.00;13.50;;;;;;;;5028666;28;11548;-74
2021/11/30 11:07:07;;;;;;;;;8.50;8.50;;;;;;;;5043996;28;11578;-75
2021/11/30 11:09:40;;;;;;;;;16.50;14.75;;;;;;;;5043136;28;11518;-75
2021/11/30 11:12:10;;;;;;;;;14.50;13.00;;;;;;;;5043219;28;11591;-74
2021/11/30 11:14:45;;;;;;;;;11.00;10.25;;;;;;;;5044621;28;11616;-75
2021/11/30 11:17:27;;;;;;;;;13.25;11.00;;;;;;;;5050065;28;12176;-74
2021/11/30 11:19:54;;;;;;;;;14.25;12.00;;;;;;;;5049765;28;11564;-74
2021/11/30 11:22:23;;;;;;;;;13.75;10.00;;;;;;;;5042552;28;11296;-74
2021/11/30 11:24:51;;;;;;;;;11.00;11.00;;;;;;;;5044172;28;11447;-75
2021/11/30 11:27:28;;;;;;;;;15.00;13.00;;;;;;;;5043436;28;11217;-75
2021/11/30 11:29:56;;;;;;;;;10.50;9.25;;;;;;;;5043079;28;11435;-75
2021/11/30 11:32:25;;;;;;;;;13.25;13.25;;;;;;;;5043226;28;11624;-75
2021/11/30 11:34:52;;;;;;;;;12.75;10.00;;;;;;;;5024985;28;11261;-75
2021/11/30 11:37:21;;;;;;;;;14.50;12.25;;;;;;;;5056466;28;11183;-75
2021/11/30 11:39:50;;;;;;;;;10.25;9.25;;;;;;;;5056107;28;11392;-75
2021/11/30 11:42:20;;;;;;;;;11.75;10.00;;;;;;;;5047223;28;11372;-75
2021/11/30 11:44:48;;;;;;;;;17.00;11.00;;;;;;;;5038903;28;11221;-75
2021/11/30 11:47:17;;;;;;;;;13.00;12.50;;;;;;;;5042363;28;11239;-75
2021/11/30 11:49:48;;;;;;;;;13.75;13.75;;;;;;;;5047821;28;11311;-79
2021/11/30 11:52:23;;;;;;;;;14.50;12.00;;;;;;;;5049080;28;11162;-74
2021/11/30 11:55:12;;;;;;;;;12.50;12.50;;;;;;;;5043913;28;11062;-77
2021/11/30 11:57:41;;;;;;;;;11.25;11.25;;;;;;;;5028854;28;11191;-77
2021/11/30 12:00:20;;;;;;;;;11.00;10.75;;;;;;;;5047559;28;11012;-77
2021/11/30 12:02:54;;;;;;;;;9.25;9.25;;;;;;;;5063312;28;11127;-74
2021/11/30 12:05:41;;;;;;;;;14.50;11.75;;;;;;;;5045352;28;10975;-76
2021/11/30 12:08:19;;;;;;;;;11.00;10.00;;;;;;;;5035244;28;10989;-76
2021/11/30 12:10:46;;;;;;;;;10.75;9.00;;;;;;;;5041807;28;10870;-75
2021/11/30 12:13:20;;;;;;;;;10.00;9.00;;;;;;;;5040179;28;10871;-76
2021/11/30 12:16:00;;;;;;;;;9.50;9.50;;;;;;;;5044601;28;10853;-74
2021/11/30 12:18:32;;;;;;;;;16.25;14.25;;;;;;;;5044384;28;11514;-75
2021/11/30 12:21:12;;;;;;;;;10.75;9.75;;;;;;;;5043378;28;10958;-75
2021/11/30 12:23:40;;;;;;;;;10.75;10.75;;;;;;;;5042314;28;10961;-73
2021/11/30 12:26:33;;;;;;;;;11.25;9.75;;;;;;;;5026451;28;10857;-74
2021/11/30 12:29:02;;;;;;;;;7.00;7.00;;;;;;;;5017433;28;10793;-74
2021/11/30 12:31:32;;;;;;;;;11.25;11.00;;;;;;;;5045091;28;11439;-74
2021/11/30 12:33:59;;;;;;;;;10.50;9.25;;;;;;;;5046491;28;10872;-72
2021/11/30 12:36:31;;;;;;;;;12.00;8.25;;;;;;;;5038696;28;11013;-74
2021/11/30 12:39:00;;;;;;;;;13.50;11.25;;;;;;;;5039410;28;10935;-76
2021/11/30 12:41:30;;;;;;;;;10.25;10.25;;;;;;;;5035413;28;10934;-74
2021/11/30 12:44:07;;;;;;;;;7.25;6.75;;;;;;;;5043466;28;10890;-74
2021/11/30 12:46:35;;;;;;;;;6.25;6.25;;;;;;;;5046491;28;10782;-74
2021/11/30 12:49:05;;;;;;;;;12.50;10.00;;;;;;;;5044670;28;10865;-74
2021/11/30 12:51:35;;;;;;;;;10.75;7.00;;;;;;;;5046535;28;11530;-73
2021/11/30 12:54:04;;;;;;;;;8.25;8.25;;;;;;;;5045964;28;10763;-74
2021/11/30 12:56:46;;;;;;;;;11.75;10.00;;;;;;;;5028114;28;10585;-74
2021/11/30 12:59:14;;;;;;;;;9.00;7.00;;;;;;;;5046808;28;10771;-74
2021/11/30 13:01:41;;;;;;;;;9.50;7.75;;;;;;;;5044246;28;11294;-74
2021/11/30 13:04:30;;;;;;;;;8.00;8.00;;;;;;;;5046535;28;10653;-74
2021/11/30 13:07:12;;;;;;;;;6.50;6.50;;;;;;;;5029209;28;10480;-74
2021/11/30 13:09:41;;;;;;;;;6.50;6.50;;;;;;;;5045531;28;10425;-74
2021/11/30 13:12:11;;;;;;;;;3.00;3.00;;;;;;;;5046057;28;10491;-74
2021/11/30 13:14:39;;;;;;;;;6.00;6.00;;;;;;;;5055388;28;11339;-74
2021/11/30 13:17:07;;;;;;;;;8.25;6.00;;;;;;;;5045906;28;11214;-74
2021/11/30 13:19:35;;;;;;;;;6.00;6.00;;;;;;;;5045031;28;10725;-74
2021/11/30 13:22:04;;;;;;;;;5.25;5.25;;;;;;;;5046083;28;10522;-74
2021/11/30 13:24:37;;;;;;;;;6.75;5.00;;;;;;;;5045807;28;10486;-74
2021/11/30 13:27:13;;;;;;;;;5.75;5.75;;;;;;;;5044798;28;10487;-74
2021/11/30 13:29:52;;;;;;;;;6.00;6.00;;;;;;;;5046236;28;10623;-74
2021/11/30 13:32:24;;;;;;;;;5.75;5.50;;;;;;;;5043799;28;10308;-74
2021/11/30 13:35:09;;;;;;;;;6.75;6.75;;;;;;;;5045571;28;10505;-74
2021/11/30 13:37:37;;;;;;;;;7.00;7.00;;;;;;;;5045225;28;10516;-76
2021/11/30 13:40:09;;;;;;;;;6.00;6.00;;;;;;;;5055684;28;10458;-74
2021/11/30 13:42:51;;;;;;;;;9.00;8.50;;;;;;;;5045405;28;10336;-74
2021/11/30 13:45:19;;;;;;;;;5.25;5.25;;;;;;;;5044740;28;11134;-74
2021/11/30 13:47:48;;;;;;;;;5.00;5.00;;;;;;;;5045846;28;10385;-74
2021/11/30 13:50:15;;;;;;;;;6.75;6.00;;;;;;;;5044929;28;10223;-74
2021/11/30 13:52:43;;;;;;;;;5.75;5.75;;;;;;;;5044591;28;10453;-74
2021/11/30 13:55:12;;;;;;;;;6.25;6.00;;;;;;;;5045288;28;10431;-74
2021/11/30 13:57:40;;;;;;;;;5.25;5.25;;;;;;;;5044661;28;10298;-74
2021/11/30 14:00:14;;;;;;;;;14.25;7.75;;;;;;;;5044564;28;10332;-74
2021/11/30 14:02:44;;;;;;;;;4.50;4.50;;;;;;;;5044186;28;10396;-74
2021/11/30 14:05:13;;;;;;;;;7.75;7.00;;;;;;;;5027671;28;11076;-74
2021/11/30 14:07:40;;;;;;;;;10.50;7.00;;;;;;;;5044293;28;11163;-74
2021/11/30 14:10:18;;;;;;;;;7.00;6.75;;;;;;;;5044513;28;10206;-74
2021/11/30 14:12:45;;;;;;;;;8.50;7.50;;;;;;;;5044979;28;10126;-74
2021/11/30 14:15:13;;;;;;;;;2.25;2.25;;;;;;;;5044332;28;10348;-75
2021/11/30 14:17:40;;;;;;;;;7.00;6.00;;;;;;;;5044875;28;10307;-74
2021/11/30 14:20:18;;;;;;;;;5.25;5.25;;;;;;;;5049927;28;10217;-74
2021/11/30 14:22:45;;;;;;;;;7.50;7.50;;;;;;;;5064862;28;10330;-74
2021/11/30 14:25:16;;;;;;;;;8.75;7.25;;;;;;;;5064217;28;10375;-74
2021/11/30 14:27:45;;;;;;;;;7.75;7.00;;;;;;;;5058210;28;10504;-74
2021/11/30 14:30:14;;;;;;;;;9.50;5.25;;;;;;;;5063962;28;10418;-74
2021/11/30 14:32:44;;;;;;;;;6.50;6.25;;;;;;;;5031006;28;10582;-74
2021/11/30 14:35:12;;;;;;;;;13.00;11.00;;;;;;;;5044915;28;10511;-74
2021/11/30 14:37:48;;;;;;;;;9.50;9.50;;;;;;;;5022087;28;10684;-74
2021/11/30 14:40:20;;;;;;;;;7.25;7.25;;;;;;;;5034321;28;10531;-75